createdAt,value
2018-09-29T00:00:18.606Z,55.60
2018-09-29T00:02:46.386Z,55.70
2018-09-29T00:05:14.237Z,56.00
2018-09-29T00:07:42.092Z,56.40
2018-09-29T00:10:09.947Z,56.70
2018-09-29T00:12:37.934Z,56.90
2018-09-29T00:15:06.084Z,57.00
2018-09-29T00:17:33.885Z,56.60
2018-09-29T00:20:02.494Z,56.10
2018-09-29T00:22:30.300Z,56.30
2018-09-29T00:24:58.653Z,56.40
2018-09-29T00:27:26.402Z,56.30
2018-09-29T00:29:54.201Z,56.30
2018-09-29T00:32:22.529Z,56.70
2018-09-29T00:34:50.525Z,56.50
2018-09-29T00:37:18.286Z,56.70
2018-09-29T00:39:46.049Z,56.80
2018-09-29T00:42:13.989Z,57.40
2018-09-29T00:44:41.900Z,57.60
2018-09-29T00:47:09.677Z,57.60
2018-09-29T00:49:37.469Z,57.80
2018-09-29T00:52:05.285Z,57.90
2018-09-29T00:54:33.061Z,57.80
2018-09-29T00:57:01.486Z,57.80
2018-09-29T00:59:29.353Z,58.00
2018-09-29T01:01:57.183Z,58.30
2018-09-29T01:04:25.032Z,58.20
2018-09-29T01:06:52.981Z,58.30
2018-09-29T01:09:20.878Z,58.40
2018-09-29T01:11:48.624Z,58.30
2018-09-29T01:14:16.437Z,58.60
2018-09-29T01:16:44.257Z,58.70
2018-09-29T01:19:12.053Z,59.10
2018-09-29T01:21:39.850Z,59.40
2018-09-29T01:24:07.658Z,59.80
2018-09-29T01:26:35.433Z,60.20
2018-09-29T01:29:03.212Z,60.30
2018-09-29T01:31:30.993Z,60.60
2018-09-29T01:33:58.749Z,60.40
2018-09-29T01:36:26.554Z,60.30
2018-09-29T01:38:54.325Z,60.20
2018-09-29T01:41:22.252Z,60.80
2018-09-29T01:43:50.053Z,60.90
2018-09-29T01:46:17.833Z,61.30
2018-09-29T01:48:45.585Z,61.90
2018-09-29T01:51:13.349Z,62.20
2018-09-29T01:53:41.153Z,62.50
2018-09-29T01:56:08.980Z,62.20
2018-09-29T01:58:36.786Z,62.10
2018-09-29T02:01:04.573Z,62.10
2018-09-29T02:03:32.355Z,62.50
2018-09-29T02:06:00.101Z,62.40
2018-09-29T02:08:27.873Z,63.10
2018-09-29T02:10:55.752Z,62.30
2018-09-29T02:13:23.660Z,62.50
2018-09-29T02:15:51.470Z,62.60
2018-09-29T02:18:19.241Z,62.80
2018-09-29T02:20:47.017Z,62.80
2018-09-29T02:23:14.812Z,63.00
2018-09-29T02:25:42.685Z,63.20
2018-09-29T02:28:10.502Z,63.20
2018-09-29T02:30:38.250Z,63.20
2018-09-29T02:33:06.022Z,62.90
2018-09-29T02:35:33.777Z,61.90
2018-09-29T02:38:01.539Z,61.80
2018-09-29T02:40:29.356Z,62.30
2018-09-29T02:42:57.139Z,63.20
2018-09-29T02:45:24.918Z,63.40
2018-09-29T02:47:52.757Z,63.80
2018-09-29T02:50:20.559Z,63.80
2018-09-29T02:52:48.351Z,64.00
2018-09-29T02:55:16.134Z,64.40
2018-09-29T02:57:43.976Z,63.90
2018-09-29T03:00:11.745Z,63.60
2018-09-29T03:02:39.522Z,63.70
2018-09-29T03:05:07.552Z,63.50
2018-09-29T03:07:35.400Z,64.20
2018-09-29T03:10:03.253Z,65.20
2018-09-29T03:12:30.999Z,64.40
2018-09-29T03:14:58.809Z,64.80
2018-09-29T03:17:27.149Z,65.40
2018-09-29T03:19:54.962Z,65.10
2018-09-29T03:22:22.727Z,65.30
2018-09-29T03:24:50.873Z,65.50
2018-09-29T03:27:18.702Z,66.40
2018-09-29T03:29:46.446Z,66.80
2018-09-29T03:32:14.204Z,66.40
2018-09-29T03:34:42.088Z,66.80
2018-09-29T03:37:09.929Z,66.80
2018-09-29T03:39:37.942Z,66.90
2018-09-29T03:42:05.856Z,67.30
2018-09-29T03:44:33.648Z,67.00
2018-09-29T03:47:01.426Z,67.60
2018-09-29T03:49:29.225Z,67.70
2018-09-29T03:51:56.985Z,67.90
2018-09-29T03:54:24.795Z,68.10
2018-09-29T03:56:52.562Z,68.30
2018-09-29T03:59:20.316Z,68.20
2018-09-29T04:01:48.100Z,69.10
2018-09-29T04:04:15.869Z,68.30
2018-09-29T04:06:43.674Z,68.50
2018-09-29T04:09:11.436Z,69.10
2018-09-29T04:11:39.285Z,69.10
2018-09-29T04:14:07.511Z,68.80
2018-09-29T04:16:35.286Z,69.10
2018-09-29T04:19:03.101Z,69.80
2018-09-29T04:21:40.019Z,70.20
2018-09-29T04:24:08.109Z,70.10
2018-09-29T04:26:35.869Z,69.80
2018-09-29T04:29:03.921Z,70.60
2018-09-29T04:31:32.319Z,70.60
2018-09-29T04:34:00.684Z,70.80
2018-09-29T04:36:28.457Z,71.10
2018-09-29T04:38:56.425Z,71.30
2018-09-29T04:41:24.444Z,71.40
2018-09-29T04:43:52.569Z,71.00
2018-09-29T04:46:20.564Z,71.30
2018-09-29T04:48:48.717Z,71.70
2018-09-29T04:51:16.791Z,72.10
2018-09-29T04:53:44.772Z,72.70
2018-09-29T04:56:12.704Z,72.30
2018-09-29T04:58:40.709Z,72.70
2018-09-29T05:01:08.869Z,73.00
2018-09-29T05:03:36.750Z,72.90
2018-09-29T05:06:04.632Z,73.40
2018-09-29T05:08:32.582Z,73.50
2018-09-29T05:11:00.537Z,73.80
2018-09-29T05:13:28.505Z,74.40
2018-09-29T05:15:56.473Z,74.10
2018-09-29T05:18:24.392Z,74.30
2018-09-29T05:20:52.740Z,74.40
2018-09-29T05:23:20.630Z,74.70
2018-09-29T05:25:49.275Z,75.20
2018-09-29T05:28:17.299Z,75.50
2018-09-29T05:30:45.136Z,75.80
2018-09-29T05:33:13.094Z,75.70
2018-09-29T05:35:41.202Z,75.70
2018-09-29T05:38:09.186Z,76.10
2018-09-29T05:40:37.078Z,76.60
2018-09-29T05:43:05.160Z,76.00
2018-09-29T05:45:33.533Z,76.10
2018-09-29T05:48:01.493Z,75.90
2018-09-29T05:50:29.296Z,76.30
2018-09-29T05:52:57.129Z,76.40
2018-09-29T05:55:24.949Z,76.50
2018-09-29T05:57:52.736Z,76.10
2018-09-29T06:00:20.585Z,76.40
2018-09-29T06:02:48.316Z,76.40
2018-09-29T06:05:16.141Z,76.40
2018-09-29T06:07:43.972Z,75.60
2018-09-29T06:10:12.393Z,74.90
2018-09-29T06:12:40.836Z,74.70
2018-09-29T06:15:18.834Z,74.60
2018-09-29T06:17:46.685Z,74.40
2018-09-29T06:20:15.385Z,74.10
2018-09-29T06:22:48.736Z,73.20
2018-09-29T06:25:16.605Z,72.80
2018-09-29T06:27:44.525Z,72.50
2018-09-29T06:30:12.469Z,71.30
2018-09-29T06:32:40.408Z,70.70
2018-09-29T06:35:08.563Z,70.10
2018-09-29T06:37:36.345Z,69.70
2018-09-29T06:40:04.245Z,69.10
2018-09-29T06:42:32.913Z,68.50
2018-09-29T06:45:00.706Z,69.30
2018-09-29T06:47:28.629Z,68.70
2018-09-29T06:49:56.410Z,68.50
2018-09-29T06:52:24.344Z,68.10
2018-09-29T06:54:52.224Z,67.60
2018-09-29T06:57:20.097Z,66.80
2018-09-29T06:59:47.998Z,65.70
2018-09-29T07:02:15.896Z,61.50
2018-09-29T07:04:43.803Z,61.00
2018-09-29T07:07:11.624Z,58.90
2018-09-29T07:09:39.611Z,57.80
2018-09-29T07:12:07.427Z,57.30
2018-09-29T07:14:35.306Z,56.90
2018-09-29T07:17:04.793Z,56.30
2018-09-29T07:19:32.744Z,55.40
2018-09-29T07:22:00.533Z,54.40
2018-09-29T07:24:28.390Z,54.30
2018-09-29T07:26:56.153Z,53.90
2018-09-29T07:29:23.917Z,52.90
2018-09-29T07:31:54.005Z,51.60
2018-09-29T07:34:21.822Z,51.10
2018-09-29T07:36:49.650Z,50.20
2018-09-29T07:39:17.500Z,49.80
2018-09-29T07:41:45.406Z,49.50
2018-09-29T07:44:13.266Z,48.30
2018-09-29T07:46:41.083Z,47.60
2018-09-29T07:49:09.023Z,46.90
2018-09-29T07:51:36.789Z,46.60
2018-09-29T07:54:04.573Z,46.70
2018-09-29T07:56:32.456Z,47.90
2018-09-29T07:59:00.325Z,48.20
2018-09-29T08:01:28.450Z,47.70
2018-09-29T08:03:56.357Z,47.60
2018-09-29T08:06:24.466Z,46.20
2018-09-29T08:08:52.417Z,46.20
2018-09-29T08:11:20.280Z,45.30
2018-09-29T08:13:48.186Z,44.30
2018-09-29T08:16:16.053Z,44.20
2018-09-29T08:18:44.033Z,44.20
2018-09-29T08:21:11.884Z,42.60
2018-09-29T08:23:39.921Z,42.50
2018-09-29T08:26:07.779Z,42.10
2018-09-29T08:28:35.786Z,42.10
2018-09-29T08:31:03.913Z,41.00
2018-09-29T08:33:33.067Z,40.50
2018-09-29T08:36:01.226Z,40.30
2018-09-29T08:38:29.186Z,40.30
2018-09-29T08:40:56.973Z,40.00
2018-09-29T08:43:24.745Z,40.00
2018-09-29T08:45:53.369Z,40.80
2018-09-29T08:48:21.186Z,41.20
2018-09-29T08:50:49.045Z,41.30
2018-09-29T08:53:16.888Z,41.40
2018-09-29T08:55:44.589Z,40.60
2018-09-29T08:58:14.523Z,40.00
2018-09-29T09:00:42.585Z,40.20
2018-09-29T09:03:10.502Z,39.20
2018-09-29T09:05:38.525Z,40.10
2018-09-29T09:08:06.356Z,39.00
2018-09-29T09:10:34.181Z,38.80
2018-09-29T09:13:01.998Z,38.60
2018-09-29T09:15:29.785Z,37.40
2018-09-29T09:17:57.587Z,37.00
2018-09-29T09:20:25.372Z,36.50
2018-09-29T09:22:53.283Z,35.90
2018-09-29T09:25:21.152Z,36.00
2018-09-29T09:27:48.915Z,34.60
2018-09-29T09:30:16.746Z,35.60
2018-09-29T09:32:44.856Z,35.30
2018-09-29T09:35:12.770Z,34.40
2018-09-29T09:37:42.122Z,34.20
2018-09-29T09:40:09.955Z,33.30
2018-09-29T09:42:39.535Z,32.70
2018-09-29T09:45:07.605Z,32.10
2018-09-29T09:47:35.572Z,33.10
2018-09-29T09:50:03.530Z,33.70
2018-09-29T09:52:31.469Z,32.70
2018-09-29T09:54:59.299Z,33.90
2018-09-29T09:57:28.364Z,33.60
2018-09-29T09:59:56.317Z,32.40
2018-09-29T10:02:29.775Z,31.30
2018-09-29T10:04:57.576Z,29.60
2018-09-29T10:07:25.422Z,29.60
2018-09-29T10:09:53.265Z,30.80
2018-09-29T10:12:21.255Z,31.10
2018-09-29T10:14:49.032Z,30.60
2018-09-29T10:17:16.884Z,29.80
2018-09-29T10:19:44.816Z,30.00
2018-09-29T10:22:12.685Z,30.80
2018-09-29T10:24:40.537Z,30.20
2018-09-29T10:27:08.402Z,29.70
2018-09-29T10:29:36.269Z,28.80
2018-09-29T10:32:04.106Z,28.80
2018-09-29T10:34:31.977Z,28.40
2018-09-29T10:36:59.769Z,29.50
2018-09-29T10:39:27.592Z,28.50
2018-09-29T10:41:55.377Z,28.40
2018-09-29T10:44:23.261Z,28.70
2018-09-29T10:46:51.072Z,28.10
2018-09-29T10:49:18.925Z,28.10
2018-09-29T10:51:46.977Z,28.10
2018-09-29T10:54:14.969Z,28.50
2018-09-29T10:56:42.838Z,28.90
2018-09-29T10:59:10.810Z,28.00
2018-09-29T11:01:38.617Z,28.80
2018-09-29T11:04:06.452Z,27.90
2018-09-29T11:06:34.269Z,28.50
2018-09-29T11:09:03.023Z,28.40
2018-09-29T11:11:31.527Z,27.40
2018-09-29T11:13:59.495Z,28.80
2018-09-29T11:16:27.430Z,28.20
2018-09-29T11:18:55.353Z,27.00
2018-09-29T11:21:23.218Z,28.20
2018-09-29T11:23:51.038Z,27.80
2018-09-29T11:26:18.933Z,27.00
2018-09-29T11:28:46.849Z,27.40
2018-09-29T11:31:14.685Z,26.80
2018-09-29T11:33:42.685Z,26.20
2018-09-29T11:36:10.661Z,26.10
2018-09-29T11:38:38.597Z,25.50
2018-09-29T11:41:06.565Z,26.90
2018-09-29T11:43:34.507Z,26.40
2018-09-29T11:46:02.541Z,27.40
2018-09-29T11:48:30.557Z,26.50
2018-09-29T11:50:58.473Z,25.90
2018-09-29T11:53:26.342Z,25.80
2018-09-29T11:55:54.215Z,26.90
2018-09-29T11:58:22.054Z,26.70
2018-09-29T12:00:49.928Z,26.30
2018-09-29T12:03:17.741Z,26.90
2018-09-29T12:05:45.805Z,26.40
2018-09-29T12:08:13.722Z,26.30
2018-09-29T12:10:41.584Z,25.60
2018-09-29T12:13:09.409Z,26.70
2018-09-29T12:15:37.202Z,25.70
2018-09-29T12:18:05.034Z,25.70
2018-09-29T12:20:32.852Z,25.50
2018-09-29T12:23:00.709Z,25.30
2018-09-29T12:25:28.508Z,25.30
2018-09-29T12:27:56.314Z,25.00
2018-09-29T12:30:25.368Z,24.60
2018-09-29T12:32:53.133Z,24.80
2018-09-29T12:35:21.117Z,24.90
2018-09-29T12:37:49.145Z,24.30
2018-09-29T12:40:17.071Z,24.60
2018-09-29T12:42:44.966Z,24.30
2018-09-29T12:45:12.749Z,24.80
2018-09-29T12:47:41.276Z,24.50
2018-09-29T12:50:09.204Z,24.40
2018-09-29T12:52:37.336Z,24.50
2018-09-29T12:55:05.299Z,25.10
2018-09-29T12:57:33.122Z,24.70
2018-09-29T13:00:01.025Z,25.00
2018-09-29T13:02:28.998Z,25.80
2018-09-29T13:04:56.953Z,25.10
2018-09-29T13:07:26.112Z,25.80
2018-09-29T13:09:54.046Z,26.10
2018-09-29T13:12:22.242Z,27.10
2018-09-29T13:14:50.393Z,27.00
2018-09-29T13:17:18.529Z,27.10
2018-09-29T13:19:46.433Z,27.50
2018-09-29T13:22:15.649Z,26.90
2018-09-29T13:24:43.816Z,27.80
2018-09-29T13:27:12.178Z,28.70
2018-09-29T13:29:40.086Z,30.00
2018-09-29T13:32:07.941Z,29.40
2018-09-29T13:34:35.964Z,29.60
2018-09-29T13:37:03.811Z,29.10
2018-09-29T13:39:31.844Z,29.20
2018-09-29T13:41:59.811Z,29.70
2018-09-29T13:44:27.728Z,31.20
2018-09-29T13:46:55.546Z,30.50
2018-09-29T13:49:23.550Z,30.30
2018-09-29T13:51:51.616Z,30.70
2018-09-29T13:54:19.392Z,29.80
2018-09-29T13:56:47.553Z,30.00
2018-09-29T13:59:15.961Z,30.40
2018-09-29T14:01:44.049Z,29.30
2018-09-29T14:04:12.309Z,29.20
2018-09-29T14:06:40.792Z,29.70
2018-09-29T14:09:09.821Z,28.50
2018-09-29T14:11:38.161Z,28.00
2018-09-29T14:14:06.897Z,27.80
2018-09-29T14:16:35.048Z,27.80
2018-09-29T14:19:03.273Z,27.90
2018-09-29T14:21:31.337Z,27.70
2018-09-29T14:23:59.179Z,26.60
2018-09-29T14:26:27.088Z,26.10
2018-09-29T14:28:54.993Z,26.70
2018-09-29T14:31:22.897Z,27.40
2018-09-29T14:33:50.750Z,27.60
2018-09-29T14:36:18.697Z,26.80
2018-09-29T14:38:46.593Z,27.10
2018-09-29T14:41:14.648Z,27.30
2018-09-29T14:43:42.617Z,27.80
2018-09-29T14:46:10.550Z,27.60
2018-09-29T14:48:38.452Z,27.90
2018-09-29T14:51:06.562Z,28.70
2018-09-29T14:53:34.417Z,29.10
2018-09-29T14:56:02.291Z,29.70
2018-09-29T14:58:30.176Z,30.40
2018-09-29T15:00:58.001Z,29.80
2018-09-29T15:03:25.977Z,30.10
2018-09-29T15:05:53.800Z,30.50
2018-09-29T15:08:21.639Z,30.00
2018-09-29T15:10:49.659Z,30.00
2018-09-29T15:13:17.486Z,29.80
2018-09-29T15:15:45.669Z,30.20
2018-09-29T15:18:13.686Z,30.00
2018-09-29T15:20:41.486Z,30.30
2018-09-29T15:23:09.362Z,31.40
2018-09-29T15:25:37.138Z,32.30
2018-09-29T15:28:05.243Z,32.40
2018-09-29T15:30:33.061Z,33.00
2018-09-29T15:33:01.011Z,33.30
2018-09-29T15:35:28.938Z,33.80
2018-09-29T15:37:56.740Z,34.00
2018-09-29T15:40:24.537Z,34.70
2018-09-29T15:42:52.449Z,35.40
2018-09-29T15:45:20.511Z,36.10
2018-09-29T15:47:48.329Z,36.70
2018-09-29T15:50:16.233Z,37.80
2018-09-29T15:52:44.148Z,38.60
2018-09-29T15:55:12.162Z,39.00
2018-09-29T15:57:39.920Z,39.90
2018-09-29T16:00:07.848Z,40.30
2018-09-29T16:02:35.746Z,41.30
2018-09-29T16:05:03.600Z,41.20
2018-09-29T16:07:31.376Z,42.20
2018-09-29T16:09:59.278Z,43.00
2018-09-29T16:12:27.088Z,43.40
2018-09-29T16:14:55.415Z,44.00
2018-09-29T16:17:23.182Z,44.30
2018-09-29T16:19:51.162Z,44.10
2018-09-29T16:22:19.172Z,45.10
2018-09-29T16:24:47.208Z,46.10
2018-09-29T16:27:15.237Z,45.60
2018-09-29T16:29:43.058Z,46.40
2018-09-29T16:32:11.826Z,47.50
2018-09-29T16:34:39.863Z,47.50
2018-09-29T16:37:07.952Z,48.10
2018-09-29T16:39:35.779Z,48.20
2018-09-29T16:42:03.581Z,48.30
2018-09-29T16:44:31.370Z,48.60
2018-09-29T16:46:59.361Z,49.40
2018-09-29T16:49:27.281Z,50.20
2018-09-29T16:51:55.128Z,50.40
2018-09-29T16:54:22.934Z,50.70
2018-09-29T16:56:50.726Z,50.90
2018-09-29T16:59:18.552Z,51.30
2018-09-29T17:01:46.389Z,51.40
2018-09-29T17:04:14.471Z,51.90
2018-09-29T17:06:42.462Z,52.70
2018-09-29T17:09:11.775Z,52.80
2018-09-29T17:11:39.630Z,53.20
2018-09-29T17:14:07.742Z,53.00
2018-09-29T17:16:36.332Z,53.20
2018-09-29T17:19:04.354Z,53.60
2018-09-29T17:21:32.436Z,54.20
2018-09-29T17:24:00.430Z,54.50
2018-09-29T17:26:28.260Z,54.80
2018-09-29T17:28:56.432Z,55.10
2018-09-29T17:31:24.559Z,55.70
2018-09-29T17:33:52.520Z,55.80
2018-09-29T17:36:20.577Z,55.90
2018-09-29T17:38:48.613Z,56.20
2018-09-29T17:41:16.570Z,56.70
2018-09-29T17:43:44.461Z,57.10
2018-09-29T17:46:12.254Z,57.20
2018-09-29T17:48:40.066Z,57.50
2018-09-29T17:51:08.109Z,57.70
2018-09-29T17:53:35.958Z,57.90
2018-09-29T17:56:03.818Z,58.20
2018-09-29T17:58:32.321Z,58.30
2018-09-29T18:01:01.152Z,58.30
2018-09-29T18:03:28.941Z,58.50
2018-09-29T18:05:56.844Z,59.30
2018-09-29T18:08:24.760Z,58.50
2018-09-29T18:10:52.822Z,58.30
2018-09-29T18:13:20.789Z,58.30
2018-09-29T18:15:48.993Z,58.60
2018-09-29T18:18:16.846Z,58.60
2018-09-29T18:20:44.704Z,58.60
2018-09-29T18:23:12.619Z,58.90
2018-09-29T18:25:40.737Z,58.90
2018-09-29T18:28:09.277Z,59.20
2018-09-29T18:30:37.058Z,58.80
2018-09-29T18:33:05.126Z,59.10
2018-09-29T18:35:33.116Z,58.80
2018-09-29T18:38:00.924Z,58.60
2018-09-29T18:40:28.737Z,58.70
2018-09-29T18:42:56.735Z,59.10
2018-09-29T18:45:24.653Z,58.90
2018-09-29T18:47:52.473Z,59.30
2018-09-29T18:50:20.333Z,58.80
2018-09-29T18:52:48.253Z,59.20
2018-09-29T18:55:16.416Z,59.10
2018-09-29T18:57:44.465Z,59.30
2018-09-29T19:00:12.492Z,58.90
2018-09-29T19:02:40.306Z,59.20
2018-09-29T19:05:08.176Z,58.80
2018-09-29T19:07:35.990Z,58.80
2018-09-29T19:10:03.944Z,58.90
2018-09-29T19:12:31.770Z,59.20
2018-09-29T19:14:59.537Z,58.70
2018-09-29T19:17:27.326Z,58.90
2018-09-29T19:19:55.187Z,58.90
2018-09-29T19:22:23.288Z,59.10
2018-09-29T19:24:52.824Z,59.00
2018-09-29T19:27:20.676Z,59.00
2018-09-29T19:29:48.525Z,59.50
2018-09-29T19:32:16.321Z,59.40
2018-09-29T19:34:44.111Z,59.60
2018-09-29T19:37:12.194Z,60.00
2018-09-29T19:39:40.166Z,60.00
2018-09-29T19:42:08.035Z,59.90
2018-09-29T19:44:36.079Z,60.10
2018-09-29T19:47:03.923Z,60.10
2018-09-29T19:49:31.774Z,60.20
2018-09-29T19:51:59.845Z,60.40
2018-09-29T19:54:27.918Z,60.20
2018-09-29T19:56:56.160Z,60.80
2018-09-29T19:59:24.857Z,61.00
2018-09-29T20:01:53.132Z,61.20
2018-09-29T20:04:21.012Z,61.20
2018-09-29T20:06:49.095Z,61.80
2018-09-29T20:09:16.981Z,61.90
2018-09-29T20:11:46.482Z,61.60
2018-09-29T20:14:14.796Z,61.60
2018-09-29T20:16:43.119Z,61.70
2018-09-29T20:19:10.976Z,62.20
2018-09-29T20:21:38.757Z,61.90
2018-09-29T20:24:06.659Z,62.20
2018-09-29T20:26:34.621Z,61.90
2018-09-29T20:29:02.489Z,61.80
2018-09-29T20:31:30.656Z,61.80
2018-09-29T20:33:58.637Z,61.60
2018-09-29T20:36:26.849Z,60.80
2018-09-29T20:38:54.865Z,61.90
2018-09-29T20:41:22.830Z,61.60
2018-09-29T20:43:51.359Z,61.80
2018-09-29T20:46:19.655Z,61.30
2018-09-29T20:48:47.707Z,60.80
2018-09-29T20:51:15.716Z,61.20
2018-09-29T20:53:43.559Z,61.80
2018-09-29T20:56:11.373Z,61.10
2018-09-29T20:58:39.310Z,61.10
2018-09-29T21:01:07.255Z,61.30
2018-09-29T21:03:35.348Z,61.70
2018-09-29T21:06:03.333Z,61.80
2018-09-29T21:08:31.217Z,62.30
2018-09-29T21:10:59.415Z,61.80
2018-09-29T21:13:27.413Z,62.10
2018-09-29T21:15:55.351Z,62.30
2018-09-29T21:18:23.236Z,62.50
2018-09-29T21:20:51.369Z,63.00
2018-09-29T21:23:19.458Z,63.50
2018-09-29T21:25:47.407Z,64.10
2018-09-29T21:28:15.655Z,64.30
2018-09-29T21:30:47.317Z,64.70
2018-09-29T21:33:15.297Z,65.10
2018-09-29T21:35:43.085Z,65.60
2018-09-29T21:38:10.901Z,66.00
2018-09-29T21:40:38.725Z,66.00
2018-09-29T21:43:06.541Z,66.20
2018-09-29T21:45:34.401Z,66.60
2018-09-29T21:48:02.222Z,66.60
2018-09-29T21:50:30.155Z,66.70
2018-09-29T21:52:57.977Z,66.90
2018-09-29T21:55:25.769Z,67.10
2018-09-29T21:57:53.762Z,67.40
2018-09-29T22:00:27.306Z,67.50
2018-09-29T22:02:55.260Z,67.80
2018-09-29T22:05:23.404Z,68.00
2018-09-29T22:07:51.425Z,68.10
2018-09-29T22:10:19.342Z,68.60
2018-09-29T22:12:47.539Z,69.20
2018-09-29T22:15:15.541Z,69.30
2018-09-29T22:17:43.528Z,69.10
2018-09-29T22:20:11.465Z,69.70
2018-09-29T22:22:39.323Z,69.60
2018-09-29T22:25:07.317Z,70.10
2018-09-29T22:27:35.197Z,70.00
2018-09-29T22:30:03.166Z,70.10
2018-09-29T22:32:30.971Z,70.40
2018-09-29T22:34:59.560Z,70.60
2018-09-29T22:37:27.522Z,70.30
2018-09-29T22:39:55.337Z,69.90
2018-09-29T22:42:23.356Z,70.10
2018-09-29T22:44:51.105Z,70.30
2018-09-29T22:47:19.000Z,70.30
2018-09-29T22:49:46.904Z,70.50
2018-09-29T22:52:14.843Z,70.70
2018-09-29T22:54:42.853Z,70.70
2018-09-29T22:57:10.609Z,70.80
2018-09-29T22:59:38.409Z,70.90
2018-09-29T23:02:06.738Z,70.80
2018-09-29T23:04:34.697Z,71.10
2018-09-29T23:07:02.714Z,70.90
2018-09-29T23:09:32.908Z,70.90
2018-09-29T23:12:01.325Z,71.30
2018-09-29T23:14:29.170Z,71.70
2018-09-29T23:16:57.013Z,71.70
2018-09-29T23:19:25.700Z,71.70
2018-09-29T23:21:53.621Z,72.70
2018-09-29T23:24:21.446Z,72.20
2018-09-29T23:26:49.352Z,72.20
2018-09-29T23:29:17.129Z,71.80
2018-09-29T23:31:44.993Z,71.90
2018-09-29T23:34:12.781Z,72.00
2018-09-29T23:36:40.664Z,72.00
2018-09-29T23:39:09.205Z,71.80
2018-09-29T23:41:36.977Z,71.70
2018-09-29T23:44:04.932Z,72.30
2018-09-29T23:46:32.753Z,72.70
2018-09-29T23:49:00.769Z,72.40
2018-09-29T23:51:28.632Z,72.90
2018-09-29T23:53:56.424Z,72.80
2018-09-29T23:56:24.241Z,73.20
2018-09-29T23:58:52.046Z,73.20
